Flight Track Log - Related Links

Times and Time Zones

All times are in EST time to prevent confusion due to time zone crossing. See the FSR411 flight status page for this flight to view local times or setup timezone preferences in your user account.

Time Position Orientation Groundspeed Altitude Reporting Facility
EST Latitude Longitude Course Direction KTS MPH feet Rate Location/Type
Tue 04:44:11 PM 37.0419 -86.3725 25° Northeast 200 230 4,800  Level Memphis Center
Tue 04:45:17 PM 37.1031 -86.3406 23° Northeast 226 260 7,700 2,766 Climbing Indianapolis Center
Tue 04:46:19 PM 37.1722 -86.2992 25° Northeast 262 302 10,700 2,710 Climbing Indianapolis Center
Tue 04:47:21 PM 37.2547 -86.2522 24° Northeast 314 361 13,300 3,435 Climbing Indianapolis Center
Tue 04:48:23 PM 37.3644 -86.1858 26° Northeast 363 418 17,800 3,726 Climbing Indianapolis Center
Tue 04:49:00 PM 37.6426 -86.0150 25° Northeast  Level FlightAware Approximate
Tue 04:49:25 PM 37.4636 -86.1297 24° Northeast 383 441 21,000  Level Indianapolis Center
Tue 04:50:27 PM 37.5706 -86.0667 25° Northeast 412 474 22,800 1,935 Climbing Indianapolis Center
Tue 04:51:29 PM 37.6892 -85.9958 25° Northeast 456 525 25,000 2,226 Climbing Indianapolis Center
Tue 04:52:31 PM 37.8097 -85.9261 25° Northeast 471 542 27,400 2,177 Climbing Indianapolis Center
Tue 04:53:33 PM 37.9297 -85.8539 25° Northeast 476 548 29,500 1,984 Climbing Indianapolis Center
Tue 04:54:35 PM 38.0536 -85.7800 25° Northeast 484 557 31,500 2,081 Climbing Indianapolis Center
Tue 04:55:37 PM 38.1986 -85.6925 25° Northeast 483 556 33,800 1,694 Climbing Indianapolis Center
Tue 04:56:39 PM 38.3186 -85.6211 25° Northeast 478 550 35,000 581 Climbing Indianapolis Center
Tue 04:57:41 PM 38.4428 -85.5461 25° Northeast 486 559 35,000  Level Indianapolis Center
Tue 04:58:43 PM 38.5700 -85.4700 25° Northeast 499 574 35,000  Level Indianapolis Center
Tue 04:59:46 PM 38.7094 -85.3858 25° Northeast 504 580 35,000  Level Indianapolis Center
Tue 05:00:48 PM 38.8314 -85.3111 26° Northeast 496 571 35,000  Level Indianapolis Center
Tue 05:01:50 PM 38.9533 -85.2353 26° Northeast 492 566 35,000 -242 Level Indianapolis Center
Tue 05:02:52 PM 39.0731 -85.1636 25° Northeast 482 555 34,500 -1,016 Descending Indianapolis Center
Tue 05:03:54 PM 39.1897 -85.0908 26° Northeast 473 544 32,900 -1,645 Descending Indianapolis Center
Tue 05:04:56 PM 39.3364 -84.9989 26° Northeast 486 559 31,100 -1,548 Descending Indianapolis Center
Tue 05:05:58 PM 39.4608 -84.9208 26° Northeast 495 570 29,700 -1,016 Descending Indianapolis Center
Tue 05:07:00 PM 39.5778 -84.8500 25° Northeast 496 571 29,000 -339 Descending Indianapolis Center
Tue 05:08:02 PM 39.7242 -84.7572 26° Northeast 490 564 29,000  Level Indianapolis Center
Tue 05:09:05 PM 39.8461 -84.6800 26° Northeast 488 562 29,000  Level Indianapolis Center
Tue 05:10:06 PM 39.9692 -84.6019 26° Northeast 489 563 29,000  Level Indianapolis Center
Tue 05:11:08 PM 40.0897 -84.5264 26° Northeast 484 557 29,000 -435 Level Indianapolis Center
Tue 05:12:10 PM 40.2106 -84.4478 26° Northeast 483 556 28,100 -1,161 Descending Indianapolis Center
Tue 05:13:12 PM 40.3264 -84.3736 26° Northeast 476 548 26,600 -1,452 Descending Indianapolis Center
Tue 05:14:14 PM 40.4433 -84.2989 26° Northeast 469 540 25,100 -1,500 Descending Indianapolis Center
Tue 05:15:16 PM 40.5769 -84.2122 26° Northeast 450 518 23,500 -1,500 Descending Indianapolis Center
Tue 05:16:18 PM 40.6808 -84.1450 26° Northeast 424 488 22,000 -1,500 Descending Indianapolis Center
Tue 05:17:20 PM 40.7822 -84.0786 26° Northeast 411 473 20,400 -1,355 Descending Indianapolis Center
Tue 05:18:22 PM 40.8822 -84.0139 26° Northeast 403 464 19,200 -1,306 Descending Indianapolis Center
Tue 05:19:24 PM 40.9778 -83.9506 27° Northeast 391 450 17,700 -1,306 Descending Indianapolis Center
Tue 05:20:26 PM 41.0803 -83.8836 26° Northeast 380 437 16,500 -1,200 Descending Indianapolis Center
Tue 05:20:59 PM 41.1253 -83.8539 26° Northeast 371 427 15,800 -1,705 Descending Cleveland Center
Tue 05:22:01 PM 41.2125 -83.7950 27° Northeast 356 410 13,800 -1,839 Descending Cleveland Center
Tue 05:23:03 PM 41.2858 -83.7233 36° Northeast 334 384 12,000 -1,584 Descending Cleveland Center
Tue 05:24:06 PM 41.3528 -83.6031 53° Northeast 338 389 10,500 -960 Descending Cleveland Center
Tue 05:25:08 PM 41.4100 -83.5025 53° Northeast 340 391 10,000 -242 Descending Cleveland Center
Tue 05:26:10 PM 41.4678 -83.4028 52° Northeast 341 392 10,000  Level Cleveland Center
Tue 05:27:12 PM 41.5253 -83.3014 53° Northeast 344 396 10,000  Level Cleveland Center
Tue 05:27:54 PM 41.5747 -83.2147 53° Northeast 343 395 10,000  Level Cleveland Center
Tue 05:28:14 PM 41.5831 -83.2022 48° Northeast 342 394 10,000  Level Cleveland Center
Tue 05:28:49 PM 41.6278 -83.1214 53° Northeast 346 398 10,000  Level Cleveland Center
Tue 05:29:16 PM 41.6522 -83.0811 51° Northeast 343 395 10,000  Level Cleveland Center
Tue 05:29:50 PM 41.6894 -83.0544 28° Northeast 258 297 10,000  Level Cleveland Center
Tue 05:30:18 PM 41.7192 -83.0544 360° North 279 321 10,000  Level Cleveland Center
Tue 05:30:51 PM 41.7603 -83.0611 353° North 259 298 10,000  Level Cleveland Center
Tue 05:31:20 PM 41.7906 -83.0619 359° North 261 300 10,000 -448 Level Cleveland Center
Tue 05:31:58 PM 41.8433 -83.0697 354° North 258 297 9,500 -857 Descending Cleveland Center
Tue 05:32:23 PM 41.8608 -83.0689 North 257 296 9,100 -1,869 Descending Cleveland Center
Tue 05:32:59 PM 41.9100 -83.0758 354° North 244 281 7,600 -1,967 Descending Cleveland Center
Tue 05:33:24 PM 41.9286 -83.0775 356° North 249 287 7,100 -1,672 Descending Cleveland Center
Tue 05:34:00 PM 41.9783 -83.0853 353° North 244 281 5,900 -1,548 Descending Cleveland Center
Tue 05:34:26 PM 42.0083 -83.0889 355° North 243 280 5,500 -885 Descending Cleveland Center
Tue 05:35:01 PM 42.0469 -83.0944 354° North 249 287 5,000 -1,065 Descending Cleveland Center
Tue 05:35:28 PM 42.0747 -83.0856 13° North 242 278 4,400 -1,400 Descending Cleveland Center
Tue 05:36:01 PM 42.1092 -83.0719 16° North 238 274 3,600 -1,143 Descending Cleveland Center
Tue 05:36:31 PM 42.1372 -83.0628 14° North 236 272 3,200 -590 Descending Cleveland Center
Tue 05:37:02 PM 42.1781 -83.0506 13° North 238 274 3,000 -194 Descending Cleveland Center
Tue 05:37:33 PM 42.2019 -83.0422 14° North 238 274 3,000  Level Cleveland Center
Tue 05:38:03 PM 42.2444 -83.0286 13° North 245 282 3,000  Level Cleveland Center
Tue 05:38:35 PM 42.2672 -83.0194 17° North 243 280 3,000  Level Cleveland Center
Tue 05:39:04 PM 42.3067 -83.0089 11° North 211 243 3,000  Level Cleveland Center
Tue 05:39:37 PM 42.3361 -83.0150 351° North 216 249 3,000 -295 Level Cleveland Center
Tue 05:40:05 PM 42.3558 -83.0239 342° North 175 201 2,700 -774 Descending Cleveland Center
Tue 05:40:39 PM 42.3808 -83.0344 343° North 189 217 2,200 -764 Descending Cleveland Center
Tue 05:41:00 PM 42.3942 -83.0461 327° Northwest 158 182 2,000 -581 Descending Cleveland Center
Tue 05:41:41 PM 42.4175 -83.0617 334° Northwest 171 197 1,600 -689 Descending Cleveland Center
Tue 05:42:01 PM 42.4272 -83.0506 40° Northeast 124 143 1,300 -677 Descending Cleveland Center
Tue 05:42:43 PM 42.4272 -83.0256 90° East 135 155 900 -571 Descending Cleveland Center
Tue 05:44:00 PM 42.4093 -83.0102 114° Southeast  Level Estimated
Tue 05:51:00 PM 42.4093 -83.0102 114° Southeast  Level Estimated
Tue 05:52:00 PM 42.4093 -83.0102 114° Southeast  Level Estimated
Tue 05:53:00 PM 42.4093 -83.0102 114° Southeast  Level Estimated
Tue 05:54:00 PM 42.4093 -83.0102 114° Southeast  Level Estimated
Tue 05:55:00 PM 42.4093 -83.0102 114° Southeast  Level Estimated
Tue 05:56:00 PM 42.4093 -83.0102 114° Southeast  Level Estimated
Tue 05:57:00 PM 42.4093 -83.0102 114° Southeast  Level Estimated
Tue 05:58:00 PM 42.4093 -83.0102 114° Southeast  Level Estimated

Login

Don't have an account? Register now (free) for customized features, flight alerts, and more!